createdAt,value
2022-12-31T00:08:02.681Z,73.83
2022-12-31T00:13:07.512Z,84.80
2022-12-31T00:18:15.612Z,69.20
2022-12-31T00:23:21.391Z,76.25
2022-12-31T00:28:25.870Z,72.72
2022-12-31T00:33:30.479Z,53.67
2022-12-31T00:38:37.290Z,58.50
2022-12-31T00:43:42.284Z,50.35
2022-12-31T00:48:47.629Z,48.13
2022-12-31T00:53:54.082Z,40.05
2022-12-31T00:59:00.217Z,44.40
2022-12-31T01:04:08.321Z,41.25
2022-12-31T01:09:17.320Z,35.33
2022-12-31T01:14:24.567Z,32.67
2022-12-31T01:19:34.983Z,28.40
2022-12-31T01:24:41.137Z,25.92
2022-12-31T01:29:48.533Z,25.70
2022-12-31T01:34:56.038Z,25.60
2022-12-31T01:40:02.346Z,23.80
2022-12-31T01:45:18.973Z,23.88
2022-12-31T01:50:30.524Z,23.88
2022-12-31T01:55:43.670Z,27.35
2022-12-31T02:00:49.187Z,27.13
2022-12-31T02:06:12.074Z,28.08
2022-12-31T02:11:31.646Z,23.52
2022-12-31T02:16:56.444Z,21.30
2022-12-31T02:22:20.956Z,22.70
2022-12-31T02:27:54.567Z,23.35
2022-12-31T02:33:16.705Z,20.60
2022-12-31T02:38:30.084Z,22.30
2022-12-31T02:43:34.890Z,21.50
2022-12-31T02:48:57.594Z,21.42
2022-12-31T02:54:33.888Z,23.63
2022-12-31T03:00:05.677Z,20.50
2022-12-31T03:05:17.287Z,19.92
2022-12-31T03:10:33.599Z,16.38
2022-12-31T03:15:39.066Z,19.30
2022-12-31T03:21:12.809Z,13.15
2022-12-31T03:26:26.056Z,17.10
2022-12-31T03:31:30.993Z,13.82
2022-12-31T03:36:43.225Z,15.65
2022-12-31T03:41:50.338Z,15.30
2022-12-31T03:46:57.979Z,14.65
2022-12-31T03:52:08.700Z,14.95
2022-12-31T03:57:13.424Z,16.27
2022-12-31T04:02:26.338Z,20.20
2022-12-31T04:07:40.057Z,19.55
2022-12-31T04:12:53.596Z,14.93
2022-12-31T04:18:03.865Z,14.88
2022-12-31T04:23:12.778Z,14.75
2022-12-31T04:28:29.469Z,20.17
2022-12-31T04:33:44.264Z,13.40
2022-12-31T04:38:50.372Z,14.20
2022-12-31T04:43:59.447Z,17.40
2022-12-31T04:49:04.284Z,20.35
2022-12-31T04:54:10.802Z,14.70
2022-12-31T04:59:18.258Z,12.65
2022-12-31T05:04:22.919Z,13.30
2022-12-31T05:09:31.463Z,14.95
2022-12-31T05:14:35.877Z,13.85
2022-12-31T05:19:43.289Z,12.05
2022-12-31T05:24:52.647Z,12.73
2022-12-31T05:30:00.849Z,13.52
2022-12-31T05:35:07.284Z,12.90
2022-12-31T05:40:14.057Z,12.15
2022-12-31T05:45:18.799Z,13.65
2022-12-31T05:50:23.035Z,14.18
2022-12-31T05:55:34.421Z,12.80
2022-12-31T06:00:42.723Z,18.02
2022-12-31T06:05:47.459Z,11.68
2022-12-31T06:10:59.516Z,13.65
2022-12-31T06:16:07.582Z,13.43
2022-12-31T06:21:15.891Z,8.85
2022-12-31T06:26:27.604Z,13.80
2022-12-31T06:31:37.684Z,16.20
2022-12-31T06:36:44.963Z,10.15
2022-12-31T06:42:00.285Z,12.27
2022-12-31T06:47:04.666Z,10.57
2022-12-31T06:52:08.887Z,8.35
2022-12-31T06:57:16.576Z,9.57
2022-12-31T07:02:56.766Z,11.43
2022-12-31T07:08:17.701Z,8.80
2022-12-31T07:14:05.320Z,14.15
2022-12-31T07:19:25.159Z,10.32
2022-12-31T07:24:30.744Z,10.70
2022-12-31T07:29:57.869Z,13.05
2022-12-31T07:35:13.898Z,11.70
2022-12-31T07:40:33.400Z,10.55
2022-12-31T07:45:48.017Z,11.55
2022-12-31T07:50:54.966Z,10.35
2022-12-31T07:56:03.045Z,9.15
2022-12-31T08:01:14.144Z,11.70
2022-12-31T08:06:29.814Z,10.15
2022-12-31T08:11:41.515Z,13.55
2022-12-31T08:16:48.419Z,11.32
2022-12-31T08:22:39.796Z,12.88
2022-12-31T08:27:59.821Z,11.40
2022-12-31T08:33:15.475Z,14.77
2022-12-31T08:38:34.908Z,12.98
2022-12-31T08:43:54.907Z,12.45
2022-12-31T08:49:01.832Z,11.38
2022-12-31T08:54:07.440Z,15.80
2022-12-31T08:59:37.055Z,13.93
2022-12-31T09:04:56.388Z,10.70
2022-12-31T09:10:17.074Z,11.77
2022-12-31T09:15:29.367Z,16.02
2022-12-31T09:20:44.048Z,14.00
2022-12-31T09:26:01.716Z,12.27
2022-12-31T09:31:16.895Z,11.95
2022-12-31T09:36:30.301Z,10.90
2022-12-31T09:42:20.943Z,12.20
2022-12-31T09:48:00.380Z,12.70
2022-12-31T09:53:40.214Z,10.82
2022-12-31T09:58:55.869Z,11.15
2022-12-31T10:04:32.605Z,11.90
2022-12-31T10:10:07.574Z,11.60
2022-12-31T10:15:54.880Z,13.60
2022-12-31T10:21:28.270Z,12.60
2022-12-31T10:27:03.965Z,12.65
2022-12-31T10:37:30.586Z,10.15
2022-12-31T10:43:36.171Z,11.45
2022-12-31T10:49:34.162Z,10.68
2022-12-31T10:55:40.534Z,11.60
2022-12-31T11:01:03.628Z,10.50
2022-12-31T11:06:59.627Z,8.95
2022-12-31T11:12:25.038Z,8.50
2022-12-31T11:18:00.261Z,11.10
2022-12-31T11:23:31.138Z,9.48
2022-12-31T11:29:22.527Z,9.50
2022-12-31T11:35:14.627Z,8.18
2022-12-31T11:40:54.111Z,8.82
2022-12-31T11:46:35.667Z,9.20
2022-12-31T11:52:23.270Z,12.93
2022-12-31T11:57:35.024Z,8.90
2022-12-31T12:02:46.779Z,10.75
2022-12-31T12:07:54.960Z,10.40
2022-12-31T12:13:00.732Z,10.23
2022-12-31T12:18:10.738Z,9.73
2022-12-31T12:23:25.190Z,10.38
2022-12-31T12:28:32.820Z,9.43
2022-12-31T12:33:45.449Z,8.68
2022-12-31T12:39:02.324Z,8.02
2022-12-31T12:44:16.855Z,7.45
2022-12-31T12:49:26.852Z,8.68
2022-12-31T12:54:47.292Z,11.10
2022-12-31T13:00:10.685Z,9.85
2022-12-31T13:05:30.456Z,9.05
2022-12-31T13:11:00.039Z,12.45
2022-12-31T13:16:16.648Z,14.82
2022-12-31T13:21:36.917Z,9.48
2022-12-31T13:26:48.874Z,8.20
2022-12-31T13:31:56.673Z,10.90
2022-12-31T13:37:06.947Z,12.70
2022-12-31T13:42:21.966Z,10.00
2022-12-31T13:47:36.901Z,9.45
2022-12-31T13:52:49.889Z,10.77
2022-12-31T13:58:06.190Z,15.32
2022-12-31T14:03:18.425Z,17.33
2022-12-31T14:08:22.938Z,9.68
2022-12-31T14:13:47.520Z,12.45
2022-12-31T14:19:06.069Z,15.43
2022-12-31T14:24:18.977Z,16.02
2022-12-31T14:29:41.367Z,10.75
2022-12-31T14:34:58.747Z,11.77
2022-12-31T14:40:20.792Z,13.25
2022-12-31T14:45:48.041Z,12.35
2022-12-31T14:50:52.782Z,9.30
2022-12-31T14:56:02.693Z,16.08
2022-12-31T15:01:22.779Z,13.93
2022-12-31T15:06:49.063Z,15.85
2022-12-31T15:12:21.231Z,14.60
2022-12-31T15:17:42.493Z,13.93
2022-12-31T15:22:49.048Z,14.00
2022-12-31T15:27:58.639Z,14.27
2022-12-31T15:33:22.637Z,16.33
2022-12-31T15:38:37.439Z,16.42
2022-12-31T15:43:54.761Z,13.45
2022-12-31T15:49:13.399Z,14.52
2022-12-31T15:54:36.884Z,12.80
2022-12-31T15:59:41.869Z,13.35
2022-12-31T16:04:48.353Z,15.25
2022-12-31T16:09:59.409Z,15.60
2022-12-31T16:15:05.152Z,15.95
2022-12-31T16:20:27.622Z,13.65
2022-12-31T16:25:34.190Z,13.10
2022-12-31T16:30:38.711Z,9.95
2022-12-31T16:35:44.776Z,12.80
2022-12-31T16:41:16.202Z,15.45
2022-12-31T16:46:27.181Z,12.32
2022-12-31T16:51:38.696Z,14.02
2022-12-31T16:56:49.193Z,14.05
2022-12-31T17:01:55.911Z,12.77
2022-12-31T17:07:39.814Z,11.30
2022-12-31T17:13:25.603Z,13.20
2022-12-31T17:18:19.813Z,11.48
2022-12-31T17:23:28.952Z,14.07
2022-12-31T17:28:44.423Z,12.30
2022-12-31T17:33:52.142Z,14.02
2022-12-31T17:39:11.324Z,12.30
2022-12-31T17:44:21.430Z,11.63
2022-12-31T17:49:32.041Z,12.25
2022-12-31T17:54:37.876Z,12.77
2022-12-31T17:59:42.487Z,12.38
2022-12-31T18:04:47.227Z,13.00
2022-12-31T18:09:53.402Z,13.60
2022-12-31T18:14:58.366Z,13.85
2022-12-31T18:20:05.239Z,13.52
2022-12-31T18:25:15.085Z,13.05
2022-12-31T18:30:20.368Z,12.70
2022-12-31T18:40:56.354Z,15.93
2022-12-31T18:46:00.902Z,16.00
2022-12-31T18:51:05.669Z,15.18
2022-12-31T18:56:14.055Z,17.67
2022-12-31T19:01:28.960Z,20.00
2022-12-31T19:06:36.094Z,19.70
2022-12-31T19:11:42.617Z,18.00
2022-12-31T19:16:50.937Z,18.80
2022-12-31T19:21:55.599Z,15.60
2022-12-31T19:27:08.551Z,14.85
2022-12-31T19:32:18.924Z,22.88
2022-12-31T19:37:29.467Z,17.10
2022-12-31T19:42:35.458Z,17.23
2022-12-31T19:47:40.289Z,12.82
2022-12-31T19:52:50.248Z,13.35
2022-12-31T19:57:59.005Z,13.63
2022-12-31T20:03:03.873Z,11.70
2022-12-31T20:08:08.703Z,14.48
2022-12-31T20:13:17.293Z,15.77
2022-12-31T20:18:33.341Z,12.98
2022-12-31T20:23:38.010Z,14.35
2022-12-31T20:28:44.004Z,16.08
2022-12-31T20:33:49.336Z,15.10
2022-12-31T20:38:53.979Z,12.65
2022-12-31T20:44:02.702Z,14.23
2022-12-31T20:49:07.656Z,12.43
2022-12-31T20:54:18.366Z,12.52
2022-12-31T20:59:24.430Z,15.38
2022-12-31T21:04:28.740Z,13.48
2022-12-31T21:09:33.205Z,17.23
2022-12-31T21:14:44.523Z,14.93
2022-12-31T21:19:52.361Z,13.45
2022-12-31T21:24:56.823Z,14.43
2022-12-31T21:30:20.601Z,12.47
2022-12-31T21:35:45.723Z,15.57
2022-12-31T21:40:56.361Z,14.52
2022-12-31T21:46:07.873Z,13.80
2022-12-31T21:51:14.399Z,13.35
2022-12-31T21:56:21.194Z,10.52
2022-12-31T22:01:44.209Z,13.02
2022-12-31T22:06:49.003Z,15.32
2022-12-31T22:11:53.528Z,12.65
2022-12-31T22:16:59.507Z,14.00
2022-12-31T22:22:04.067Z,11.98
2022-12-31T22:27:28.633Z,10.68
2022-12-31T22:32:34.164Z,10.55
2022-12-31T22:43:03.658Z,8.33
2022-12-31T22:48:12.787Z,10.90
2022-12-31T22:53:20.663Z,12.35
2022-12-31T22:58:31.999Z,12.40
2022-12-31T23:03:40.843Z,15.10
2022-12-31T23:09:07.650Z,33.08
2022-12-31T23:14:35.443Z,27.80
2022-12-31T23:20:01.755Z,24.02
2022-12-31T23:25:07.155Z,17.77
2022-12-31T23:30:16.841Z,18.50
2022-12-31T23:35:22.947Z,12.35
2022-12-31T23:40:34.449Z,11.60
2022-12-31T23:45:39.140Z,12.00
2022-12-31T23:50:53.631Z,12.50
2022-12-31T23:56:12.904Z,9.73
